Time;durP1;ratioP1;P1;durP2;ratioP2;P2;SDS_P1;SDS_P2;PMS_P1;PMS_P2;Temp;Humidity;BMP_temperature;BMP_pressure;BME280_temperature;BME280_humidity;BME280_pressure;Samples;Min_cycle;Max_cycle;Signal;HPM_P1;HPM_P2
2024/01/24 00:00:33;;;;;;;14.30;4.72;;;20.20;55.10;;;;;;5054108;28;20028;-53
2024/01/24 00:02:59;;;;;;;13.23;4.50;;;20.10;54.90;;;;;;5054340;28;20021;-50
2024/01/24 00:05:25;;;;;;;23.20;4.57;;;20.10;55.00;;;;;;5053695;28;20029;-50
2024/01/24 00:07:51;;;;;;;16.88;4.70;;;20.10;55.30;;;;;;5053885;28;20064;-47
2024/01/24 00:10:17;;;;;;;14.98;4.68;;;20.10;55.10;;;;;;5054150;28;20472;-54
2024/01/24 00:12:42;;;;;;;15.00;4.57;;;20.10;55.20;;;;;;5053946;28;20124;-51
2024/01/24 00:15:08;;;;;;;16.13;4.13;;;20.00;55.20;;;;;;5053585;28;20044;-56
2024/01/24 00:17:34;;;;;;;22.73;4.95;;;20.00;55.30;;;;;;5054031;28;20543;-50
2024/01/24 00:20:01;;;;;;;13.45;3.55;;;20.00;55.40;;;;;;5053591;28;20107;-51
2024/01/24 00:22:27;;;;;;;15.73;4.30;;;20.00;55.30;;;;;;5053795;28;20025;-52
2024/01/24 00:24:53;;;;;;;18.27;4.63;;;20.00;55.20;;;;;;5052228;28;20552;-50
2024/01/24 00:27:19;;;;;;;15.70;4.72;;;20.00;56.00;;;;;;5052059;28;20108;-50
2024/01/24 00:29:45;;;;;;;10.48;4.28;;;20.00;55.10;;;;;;5043749;28;20501;-50
2024/01/24 00:32:10;;;;;;;12.27;3.85;;;20.00;56.00;;;;;;5053567;28;20032;-52
2024/01/24 00:34:36;;;;;;;18.67;4.20;;;20.00;55.20;;;;;;5053133;28;20502;-51
2024/01/24 00:37:02;;;;;;;11.63;4.25;;;20.00;55.40;;;;;;5053620;28;20048;-53
2024/01/24 00:39:28;;;;;;;13.27;4.00;;;20.00;55.80;;;;;;5053451;28;20025;-50
2024/01/24 00:41:58;;;;;;;14.35;4.18;;;20.00;55.60;;;;;;5053286;28;20064;-56
2024/01/24 00:44:23;;;;;;;;;;;20.00;56.10;;;;;;5053097;28;20053;-52
2024/01/24 00:46:49;;;;;;;13.07;3.80;;;20.00;55.60;;;;;;5052732;28;20395;-50
2024/01/24 00:49:15;;;;;;;14.07;4.07;;;20.00;55.80;;;;;;5053307;28;20029;-53
2024/01/24 00:51:41;;;;;;;20.05;4.00;;;20.00;56.00;;;;;;5053363;28;20025;-52
2024/01/24 00:54:07;;;;;;;11.65;3.85;;;20.00;56.10;;;;;;5053070;28;20090;-50
2024/01/24 00:56:33;;;;;;;12.65;3.60;;;20.00;55.80;;;;;;5053425;28;20033;-54
2024/01/24 00:58:58;;;;;;;10.10;3.90;;;20.00;55.50;;;;;;5045168;28;20079;-49
2024/01/24 01:01:24;;;;;;;11.98;3.45;;;19.90;56.30;;;;;;5053327;28;20029;-51
2024/01/24 01:03:50;;;;;;;10.73;3.72;;;19.90;55.40;;;;;;5052759;28;20032;-54
2024/01/24 01:06:16;;;;;;;8.70;3.70;;;20.00;55.10;;;;;;5052685;28;20350;-53
2024/01/24 01:08:43;;;;;;;10.52;3.80;;;19.90;55.20;;;;;;5048443;28;20033;-52
2024/01/24 01:11:09;;;;;;;13.38;3.60;;;20.00;55.70;;;;;;5029122;28;20036;-53
2024/01/24 01:13:34;;;;;;;18.30;3.72;;;19.90;55.70;;;;;;5050943;28;20029;-51
2024/01/24 01:16:00;;;;;;;12.27;3.65;;;19.90;55.40;;;;;;5051639;28;20025;-49
2024/01/24 01:18:26;;;;;;;9.07;3.00;;;19.90;55.40;;;;;;5042106;28;20025;-55
2024/01/24 01:20:52;;;;;;;8.60;3.13;;;19.90;55.70;;;;;;5052198;28;20357;-54
2024/01/24 01:23:18;;;;;;;11.38;3.70;;;19.90;55.40;;;;;;5051004;28;20072;-51
2024/01/24 01:25:44;;;;;;;7.72;3.10;;;19.90;55.70;;;;;;5034442;28;20126;-52
2024/01/24 01:28:09;;;;;;;10.23;3.15;;;19.90;55.60;;;;;;5052742;28;20040;-51
2024/01/24 01:30:35;;;;;;;9.57;3.13;;;19.90;55.50;;;;;;5052576;28;20025;-52
2024/01/24 01:33:01;;;;;;;8.13;3.33;;;19.90;55.40;;;;;;5033830;28;20430;-51
2024/01/24 01:35:27;;;;;;;12.13;3.80;;;19.90;55.70;;;;;;5052198;28;20052;-49
2024/01/24 01:37:53;;;;;;;12.07;3.65;;;19.90;55.80;;;;;;5052303;28;20021;-57
2024/01/24 01:40:18;;;;;;;8.25;3.38;;;19.90;55.80;;;;;;5052812;28;20369;-49
2024/01/24 01:42:45;;;;;;;9.68;3.22;;;19.90;56.20;;;;;;5043063;28;20026;-54
2024/01/24 01:45:11;;;;;;;11.73;3.05;;;19.90;55.60;;;;;;5050311;28;20025;-53
2024/01/24 01:47:39;;;;;;;10.73;3.10;;;19.90;55.60;;;;;;5051790;28;20128;-50
2024/01/24 01:50:16;;;;;;;8.25;2.90;;;19.90;55.30;;;;;;5044289;28;20096;-49
2024/01/24 01:52:42;;;;;;;12.70;3.22;;;19.90;55.60;;;;;;5051849;28;20016;-50
2024/01/24 01:55:11;;;;;;;9.10;2.78;;;19.90;55.90;;;;;;5050052;28;20496;-51
2024/01/24 01:57:41;;;;;;;7.22;2.80;;;19.90;55.30;;;;;;5050999;28;20346;-51
2024/01/24 02:00:10;;;;;;;9.15;3.00;;;19.80;55.40;;;;;;5041288;28;20033;-50
2024/01/24 02:02:36;;;;;;;9.35;2.97;;;19.80;55.80;;;;;;5023563;28;20109;-49
2024/01/24 02:05:03;;;;;;;8.40;3.05;;;19.90;55.50;;;;;;5051519;28;20062;-58
2024/01/24 02:07:29;;;;;;;6.72;2.75;;;19.90;55.80;;;;;;5051809;28;20029;-54
2024/01/24 02:09:55;;;;;;;9.57;3.10;;;19.90;55.70;;;;;;5050961;28;20047;-55
2024/01/24 02:12:21;;;;;;;8.13;2.92;;;19.90;56.10;;;;;;5051887;28;20040;-51
2024/01/24 02:14:47;;;;;;;7.93;3.10;;;19.90;55.60;;;;;;5047244;28;20033;-57
2024/01/24 02:17:13;;;;;;;8.60;2.60;;;19.90;55.70;;;;;;5050380;28;20444;-57
2024/01/24 02:19:39;;;;;;;6.80;2.72;;;19.90;55.50;;;;;;5085652;22;20037;-57
2024/01/24 02:22:05;;;;;;;6.07;2.78;;;19.80;55.80;;;;;;5070924;28;20476;-55
2024/01/24 02:24:31;;;;;;;8.30;2.80;;;19.90;55.90;;;;;;5067327;28;20115;-55
2024/01/24 02:26:56;;;;;;;8.35;2.70;;;19.90;55.70;;;;;;5069795;28;20055;-57
2024/01/24 02:29:22;;;;;;;9.98;2.63;;;19.80;55.30;;;;;;5070806;28;20037;-57
2024/01/24 02:31:48;;;;;;;5.80;2.67;;;19.80;55.50;;;;;;5069268;28;20036;-57
2024/01/24 02:34:14;;;;;;;8.18;2.80;;;19.80;55.80;;;;;;5071158;28;20033;-55
2024/01/24 02:36:40;;;;;;;5.80;2.58;;;19.80;56.10;;;;;;5070997;28;20029;-57
2024/01/24 02:39:05;;;;;;;6.95;2.78;;;19.80;55.60;;;;;;5070965;28;20029;-55
2024/01/24 02:41:32;;;;;;;8.52;2.70;;;19.90;56.00;;;;;;5069686;28;20033;-51
2024/01/24 02:43:57;;;;;;;6.63;2.50;;;19.80;55.60;;;;;;5070914;28;20551;-55
2024/01/24 02:46:23;;;;;;;14.10;2.90;;;19.80;56.30;;;;;;5067120;28;20103;-54
2024/01/24 02:48:49;;;;;;;7.80;2.55;;;19.80;56.50;;;;;;5071597;28;20516;-55
2024/01/24 02:51:27;;;;;;;6.35;2.40;;;19.80;56.10;;;;;;5068632;28;20071;-57
2024/01/24 02:53:53;;;;;;;7.78;2.75;;;19.80;57.30;;;;;;5067957;28;20029;-57
2024/01/24 02:56:19;;;;;;;4.63;2.30;;;19.80;57.60;;;;;;5070230;28;20494;-54
2024/01/24 02:58:46;;;;;;;4.88;2.55;;;19.80;57.60;;;;;;5075025;28;20039;-56
2024/01/24 03:01:11;;;;;;;7.07;2.40;;;19.80;57.10;;;;;;5075368;28;20023;-57
2024/01/24 03:03:40;;;;;;;12.02;2.47;;;19.80;57.10;;;;;;5069148;28;20074;-53
2024/01/24 03:06:06;;;;;;;3.92;2.05;;;19.80;55.90;;;;;;5077585;28;20028;-56
2024/01/24 03:08:49;;;;;;;4.50;2.33;;;19.80;56.80;;;;;;5075442;28;20025;-57
2024/01/24 03:11:15;;;;;;;6.63;2.35;;;19.80;56.30;;;;;;5064075;28;20499;-57
2024/01/24 03:13:41;;;;;;;6.50;2.35;;;19.80;56.10;;;;;;5072254;28;20029;-53
2024/01/24 03:16:08;;;;;;;4.65;2.20;;;19.80;56.70;;;;;;5079956;28;20525;-54
2024/01/24 03:18:37;;;;;;;7.50;2.53;;;19.80;56.80;;;;;;5077525;28;20020;-57
2024/01/24 03:21:05;;;;;;;5.20;2.37;;;19.80;57.50;;;;;;5068233;28;20021;-55
2024/01/24 03:23:31;;;;;;;8.65;2.47;;;19.70;57.40;;;;;;5075297;28;20028;-56
2024/01/24 03:25:57;;;;;;;5.55;2.67;;;19.80;56.90;;;;;;5072163;28;20023;-57
2024/01/24 03:28:23;;;;;;;5.93;2.80;;;19.80;56.60;;;;;;5067611;28;20090;-54
2024/01/24 03:30:49;;;;;;;6.00;2.35;;;19.80;57.60;;;;;;5078229;28;20025;-51
2024/01/24 03:33:15;;;;;;;7.25;2.67;;;19.80;56.40;;;;;;5079480;28;20544;-54
2024/01/24 03:35:41;;;;;;;6.60;2.50;;;19.80;56.30;;;;;;5070780;28;20029;-57
2024/01/24 03:38:07;;;;;;;4.88;2.47;;;19.80;56.50;;;;;;5071572;28;20024;-50
2024/01/24 03:40:33;;;;;;;7.53;2.50;;;19.70;56.10;;;;;;5070935;28;20025;-55
2024/01/24 03:42:59;;;;;;;4.25;2.15;;;19.80;57.40;;;;;;5073124;28;20156;-56
2024/01/24 03:45:25;;;;;;;6.35;2.45;;;19.80;56.40;;;;;;5068319;28;20032;-53
2024/01/24 03:47:50;;;;;;;5.20;2.20;;;19.70;57.60;;;;;;5078290;28;20033;-54
2024/01/24 03:50:16;;;;;;;6.20;2.40;;;19.80;56.50;;;;;;5073538;28;20077;-56
2024/01/24 03:52:42;;;;;;;7.13;2.30;;;19.80;56.50;;;;;;5077350;28;20052;-54
2024/01/24 03:55:08;;;;;;;5.38;2.00;;;19.70;56.40;;;;;;5057310;28;20063;-55
2024/01/24 03:57:33;;;;;;;5.65;2.10;;;19.70;57.80;;;;;;5064895;28;20035;-52
2024/01/24 03:59:59;;;;;;;4.78;2.38;;;19.70;56.40;;;;;;5072246;28;20375;-55
2024/01/24 04:02:25;;;;;;;5.72;2.38;;;19.70;56.00;;;;;;5078452;28;20395;-57
2024/01/24 04:04:51;;;;;;;5.93;2.42;;;19.70;57.10;;;;;;5065953;28;20024;-55
2024/01/24 04:07:16;;;;;;;4.35;2.10;;;19.70;56.90;;;;;;5080856;28;20032;-51
2024/01/24 04:09:42;;;;;;;2.58;1.77;;;19.70;57.40;;;;;;5070876;28;20052;-55
2024/01/24 04:12:08;;;;;;;6.25;2.17;;;19.70;56.60;;;;;;5080967;28;20036;-55
2024/01/24 04:14:34;;;;;;;6.47;2.58;;;19.70;57.70;;;;;;5061060;28;20025;-60
2024/01/24 04:17:00;;;;;;;4.35;1.85;;;19.70;57.80;;;;;;5069242;28;20032;-54
2024/01/24 04:19:25;;;;;;;5.35;2.15;;;19.70;57.20;;;;;;5077316;28;20035;-55
2024/01/24 04:21:52;;;;;;;5.80;2.40;;;19.70;57.20;;;;;;5073916;28;20501;-58
2024/01/24 04:24:17;;;;;;;5.97;2.22;;;19.70;57.50;;;;;;5071943;28;20021;-57
2024/01/24 04:26:43;;;;;;;4.43;1.90;;;19.70;57.70;;;;;;5066715;28;20143;-56
2024/01/24 04:29:09;;;;;;;3.55;1.90;;;19.70;57.10;;;;;;5075401;28;20051;-57
2024/01/24 04:31:35;;;;;;;3.58;1.73;;;19.70;57.30;;;;;;5076337;28;20020;-57
2024/01/24 04:34:00;;;;;;;5.80;2.10;;;19.70;57.30;;;;;;5054305;28;20024;-56
2024/01/24 04:36:26;;;;;;;4.57;2.22;;;19.70;56.80;;;;;;5068399;28;20042;-56
2024/01/24 04:38:52;;;;;;;5.40;1.98;;;19.70;57.30;;;;;;5073388;28;20052;-56
2024/01/24 04:41:17;;;;;;;2.75;1.48;;;19.70;56.90;;;;;;5071719;28;20025;-56
2024/01/24 04:43:43;;;;;;;6.43;2.25;;;19.70;57.20;;;;;;5073405;28;20086;-54
2024/01/24 04:46:13;;;;;;;5.63;1.85;;;19.70;57.50;;;;;;5072690;28;20027;-53
2024/01/24 04:48:41;;;;;;;7.93;2.10;;;19.80;57.40;;;;;;5082525;28;20048;-55
2024/01/24 04:51:07;;;;;;;3.90;1.90;;;19.70;55.90;;;;;;5080888;28;20028;-56
2024/01/24 04:53:33;;;;;;;2.50;1.80;;;19.80;57.40;;;;;;5081119;28;20107;-57
2024/01/24 04:55:59;;;;;;;4.20;1.70;;;19.80;56.40;;;;;;5088522;28;20131;-53
2024/01/24 04:58:25;;;;;;;6.60;2.00;;;19.80;56.30;;;;;;5072935;28;20024;-52
2024/01/24 05:00:51;;;;;;;4.13;1.98;;;19.80;57.00;;;;;;5054815;28;20035;-53
2024/01/24 05:03:17;;;;;;;4.85;1.98;;;19.80;57.10;;;;;;5070527;28;20112;-55
2024/01/24 05:05:42;;;;;;;4.95;1.92;;;19.80;56.40;;;;;;5077155;28;20107;-52
2024/01/24 05:08:08;;;;;;;4.38;1.85;;;19.80;56.80;;;;;;5080075;28;20440;-54
2024/01/24 05:10:34;;;;;;;3.38;1.80;;;19.80;56.90;;;;;;5075948;28;20107;-52
2024/01/24 05:13:00;;;;;;;3.67;1.70;;;19.80;56.40;;;;;;5075555;28;20107;-55
2024/01/24 05:15:25;;;;;;;4.15;1.90;;;19.90;55.60;;;;;;5062983;28;20061;-54
2024/01/24 05:17:51;;;;;;;3.72;1.77;;;19.80;55.90;;;;;;5074498;28;20060;-55
2024/01/24 05:20:17;;;;;;;4.47;1.88;;;19.80;56.10;;;;;;5075887;28;20518;-54
2024/01/24 05:22:43;;;;;;;3.20;1.77;;;19.80;55.60;;;;;;5068987;28;20108;-57
2024/01/24 05:25:09;;;;;;;6.72;1.80;;;19.80;55.30;;;;;;5078740;28;20031;-54
2024/01/24 05:27:35;;;;;;;2.38;1.70;;;19.80;55.40;;;;;;5065547;28;20036;-53
2024/01/24 05:30:03;;;;;;;4.57;1.70;;;19.80;55.30;;;;;;5076358;28;20395;-54
2024/01/24 05:32:29;;;;;;;3.78;1.80;;;19.80;55.40;;;;;;5078213;28;20583;-54
2024/01/24 05:34:55;;;;;;;3.78;1.83;;;19.80;55.30;;;;;;5064912;28;20092;-53
2024/01/24 05:37:21;;;;;;;3.40;1.50;;;19.80;56.10;;;;;;5077814;28;20044;-57
2024/01/24 05:39:47;;;;;;;2.15;1.52;;;19.80;55.60;;;;;;5078729;28;20395;-55
2024/01/24 05:42:12;;;;;;;3.42;1.50;;;19.80;55.70;;;;;;5079068;28;20025;-53
2024/01/24 05:44:38;;;;;;;5.85;1.98;;;19.80;55.30;;;;;;5076348;28;20404;-56
2024/01/24 05:47:04;;;;;;;3.17;1.60;;;19.80;55.50;;;;;;5074599;28;20119;-58
2024/01/24 05:49:35;;;;;;;4.32;1.85;;;19.80;55.40;;;;;;5073028;28;20056;-54
2024/01/24 05:52:00;;;;;;;7.35;2.03;;;19.80;55.80;;;;;;5082089;28;20027;-54
2024/01/24 05:54:26;;;;;;;7.80;1.85;;;19.80;55.70;;;;;;5072592;28;20028;-56
2024/01/24 05:56:52;;;;;;;3.53;1.73;;;19.90;55.80;;;;;;5081190;28;20032;-58
2024/01/24 05:59:18;;;;;;;3.92;1.92;;;19.80;56.90;;;;;;5076451;28;20028;-58
2024/01/24 06:01:44;;;;;;;4.95;1.80;;;19.80;56.10;;;;;;5081539;28;20043;-58
2024/01/24 06:04:09;;;;;;;3.13;1.80;;;19.80;55.70;;;;;;5074612;28;20141;-58
2024/01/24 06:06:35;;;;;;;7.00;1.92;;;19.80;56.10;;;;;;5068100;28;20436;-57
2024/01/24 06:09:01;;;;;;;4.68;1.55;;;19.80;56.00;;;;;;5081543;28;20031;-57
2024/01/24 06:11:27;;;;;;;8.98;1.92;;;19.80;56.40;;;;;;5069213;28;20035;-58
2024/01/24 06:13:53;;;;;;;8.85;2.15;;;19.90;56.00;;;;;;5074317;28;20021;-58
2024/01/24 06:16:18;;;;;;;3.42;1.63;;;19.80;56.10;;;;;;5075928;28;20557;-58
2024/01/24 06:18:44;;;;;;;4.68;1.60;;;19.90;57.00;;;;;;5075040;28;20043;-58
2024/01/24 06:21:10;;;;;;;5.55;2.00;;;19.80;56.90;;;;;;5071427;28;20028;-58
2024/01/24 06:23:36;;;;;;;6.68;2.25;;;19.90;56.50;;;;;;5053300;28;20142;-58
2024/01/24 06:26:02;;;;;;;4.70;1.80;;;19.80;56.60;;;;;;5077931;28;20412;-58
2024/01/24 06:28:27;;;;;;;4.43;1.90;;;19.80;56.30;;;;;;5052075;28;20488;-58
2024/01/24 06:30:53;;;;;;;6.13;1.83;;;19.80;56.60;;;;;;5072812;28;20039;-58
2024/01/24 06:33:19;;;;;;;3.28;1.73;;;19.90;56.80;;;;;;5072706;28;20055;-58
2024/01/24 06:35:45;;;;;;;3.28;1.77;;;19.80;56.90;;;;;;5073097;28;20576;-58
2024/01/24 06:38:10;;;;;;;4.93;1.80;;;19.90;56.80;;;;;;5068406;28;20527;-56
2024/01/24 06:40:36;;;;;;;5.22;2.28;;;19.90;57.00;;;;;;5065169;28;20078;-57
2024/01/24 06:43:02;;;;;;;5.43;2.10;;;19.90;56.60;;;;;;5067356;28;20032;-57
2024/01/24 06:45:28;;;;;;;5.65;2.22;;;19.90;56.10;;;;;;5062897;28;20454;-57
2024/01/24 06:47:54;;;;;;;5.47;1.88;;;19.90;56.40;;;;;;5069769;28;20051;-55
2024/01/24 06:50:20;;;;;;;5.38;1.77;;;19.80;56.30;;;;;;5071035;28;20444;-57
2024/01/24 06:52:45;;;;;;;7.38;2.10;;;19.90;56.20;;;;;;5071005;28;20025;-56
2024/01/24 06:55:13;;;;;;;10.77;1.92;;;19.90;56.40;;;;;;5070717;28;20446;-57
2024/01/24 06:57:39;;;;;;;4.95;2.08;;;19.90;56.40;;;;;;5068831;28;20452;-57
2024/01/24 07:00:06;;;;;;;3.60;1.90;;;19.80;56.30;;;;;;5059155;28;20039;-57
2024/01/24 07:02:32;;;;;;;16.10;2.45;;;19.90;56.10;;;;;;5064219;28;20029;-57
2024/01/24 07:04:58;;;;;;;8.80;1.90;;;19.90;57.50;;;;;;5068401;28;20028;-55
2024/01/24 07:07:25;;;;;;;6.43;2.35;;;19.90;57.20;;;;;;5060412;28;20112;-53
2024/01/24 07:09:51;;;;;;;7.63;2.03;;;19.90;56.80;;;;;;5072224;28;20021;-57
2024/01/24 07:12:16;;;;;;;14.23;2.53;;;19.90;56.50;;;;;;5066085;28;20086;-57
2024/01/24 07:14:42;;;;;;;15.73;2.50;;;20.00;57.20;;;;;;5068225;28;20391;-57
2024/01/24 07:17:08;;;;;;;11.15;2.08;;;20.00;57.20;;;;;;5072824;28;20377;-53
2024/01/24 07:19:33;;;;;;;16.38;2.47;;;20.00;57.70;;;;;;5059634;28;20488;-57
2024/01/24 07:21:59;;;;;;;8.93;2.40;;;20.10;58.70;;;;;;5051500;28;20036;-58
2024/01/24 07:24:25;;;;;;;220.45;34.67;;;20.10;57.80;;;;;;5054320;28;20025;-57
2024/01/24 07:26:51;;;;;;;153.85;22.08;;;20.10;59.00;;;;;;5066080;28;20032;-57
2024/01/24 07:29:16;;;;;;;102.40;16.30;;;20.20;58.30;;;;;;5071674;28;20024;-56
2024/01/24 07:31:42;;;;;;;52.72;10.35;;;20.20;58.20;;;;;;5078510;28;20462;-56
2024/01/24 07:34:08;;;;;;;52.65;9.02;;;20.20;59.90;;;;;;5050981;28;20489;-56
2024/01/24 07:36:34;;;;;;;49.22;12.50;;;20.20;60.30;;;;;;5051234;28;20484;-55
2024/01/24 07:38:59;;;;;;;54.90;9.77;;;20.30;60.10;;;;;;5051194;28;20489;-53
2024/01/24 07:41:25;;;;;;;52.60;9.88;;;20.30;60.30;;;;;;5052895;28;20079;-57
2024/01/24 07:43:51;;;;;;;43.47;9.20;;;20.30;60.70;;;;;;5059733;28;20396;-56
2024/01/24 07:46:17;;;;;;;41.92;8.88;;;20.20;59.00;;;;;;5070476;28;20029;-57
2024/01/24 07:48:42;;;;;;;37.38;8.63;;;20.20;59.10;;;;;;5071594;28;20028;-57
2024/01/24 07:51:08;;;;;;;36.67;7.38;;;20.10;59.10;;;;;;5064977;28;20036;-54
2024/01/24 07:53:34;;;;;;;23.17;7.50;;;20.10;59.10;;;;;;5072030;28;20039;-55
2024/01/24 07:56:00;;;;;;;26.60;8.07;;;20.10;58.90;;;;;;5054390;28;20112;-56
2024/01/24 07:58:27;;;;;;;36.95;8.90;;;20.10;58.80;;;;;;5067203;28;20476;-58
2024/01/24 08:00:54;;;;;;;25.80;8.30;;;20.10;59.40;;;;;;5081533;28;20024;-54
2024/01/24 08:03:20;;;;;;;35.67;8.70;;;20.10;59.60;;;;;;5054062;28;20029;-58
2024/01/24 08:05:46;;;;;;;34.70;8.30;;;20.10;59.90;;;;;;5059491;28;20101;-57
2024/01/24 23:40:39;;;;;;;17.38;3.65;;;19.50;53.80;;;;;;5138368;27;20387;-54
2024/01/24 23:43:05;;;;;;;21.40;3.83;;;19.70;55.40;;;;;;5129841;27;20080;-54
2024/01/24 23:45:31;;;;;;;17.48;3.40;;;19.80;55.20;;;;;;5129764;27;20015;-57
2024/01/24 23:47:57;;;;;;;11.57;3.15;;;19.90;55.10;;;;;;5114276;27;20077;-56
2024/01/24 23:50:22;;;;;;;11.18;3.03;;;19.90;55.00;;;;;;5102467;28;20036;-52
2024/01/24 23:52:48;;;;;;;11.50;3.53;;;19.90;54.30;;;;;;5105166;28;20030;-56
2024/01/24 23:55:14;;;;;;;14.00;3.45;;;19.80;54.40;;;;;;5103831;28;20035;-57
2024/01/24 23:57:40;;;;;;;13.65;3.50;;;19.80;54.40;;;;;;5104919;28;20031;-51
